Time;durP1;ratioP1;P1;durP2;ratioP2;P2;SDS_P1;SDS_P2;PMS_P1;PMS_P2;Temp;Humidity;BMP_temperature;BMP_pressure;BME280_temperature;BME280_humidity;BME280_pressure;Samples;Min_cycle;Max_cycle;Signal;HPM_P1;HPM_P2
2023/10/20 21:49:42;;;;;;;3.70;2.63;;;22.20;67.10;;;;;;802585;176;27644;-59
2023/10/20 21:52:08;;;;;;;5.93;2.50;;;21.00;71.50;;;;;;791589;179;26537;-65
2023/10/20 22:07:44;;;;;;;3.30;2.43;;;21.20;71.20;;;;;;795240;175;26558;-59
2023/10/20 22:10:11;;;;;;;4.43;2.50;;;20.90;71.80;;;;;;788479;180;26586;-56
2023/10/20 22:12:38;;;;;;;3.87;2.53;;;20.90;71.80;;;;;;789337;180;26515;-55
2023/10/20 22:15:05;;;;;;;5.43;2.40;;;20.60;73.00;;;;;;781093;180;27484;-56
2023/10/20 22:17:34;;;;;;;3.77;2.67;;;20.40;73.90;;;;;;774688;183;26552;-54
2023/10/20 22:19:58;;;;;;;3.97;2.57;;;20.30;74.50;;;;;;777794;183;26565;-54
2023/10/20 22:22:26;;;;;;;3.53;2.60;;;20.20;74.80;;;;;;775214;182;26562;-52
2023/10/20 22:24:52;;;;;;;4.17;2.40;;;20.20;75.10;;;;;;774355;183;26600;-55
2023/10/20 22:27:19;;;;;;;3.57;2.77;;;20.20;75.30;;;;;;769108;184;27130;-53
2023/10/20 22:29:45;;;;;;;7.30;2.50;;;20.10;75.30;;;;;;756168;186;26571;-51
2023/10/20 22:32:11;;;;;;;3.60;2.50;;;20.10;75.50;;;;;;769725;183;26562;-48
2023/10/20 22:34:38;;;;;;;3.13;2.33;;;20.10;75.50;;;;;;770098;184;26557;-57
2023/10/20 22:37:05;;;;;;;2.90;2.60;;;20.10;75.40;;;;;;769773;184;26562;-52
2023/10/20 22:39:31;;;;;;;3.63;2.43;;;20.10;75.50;;;;;;769525;184;27118;-45
2023/10/20 22:41:59;;;;;;;4.17;2.40;;;20.10;75.50;;;;;;769337;184;26552;-55
2023/10/20 22:44:25;;;;;;;3.27;2.57;;;20.10;75.60;;;;;;774213;184;26548;-56
2023/10/20 22:46:53;;;;;;;3.70;2.20;;;20.10;75.60;;;;;;768976;186;26592;-55
2023/10/20 22:49:19;;;;;;;4.43;2.53;;;20.10;75.50;;;;;;775281;184;26573;-54
2023/10/20 22:51:46;;;;;;;4.40;2.63;;;20.10;75.60;;;;;;774827;184;27026;-58
2023/10/20 22:54:12;;;;;;;2.30;2.10;;;20.10;75.60;;;;;;767767;187;26593;-52
2023/10/20 22:56:40;;;;;;;5.13;2.53;;;20.10;75.60;;;;;;767583;187;26548;-52
2023/10/20 22:59:07;;;;;;;3.27;2.40;;;20.10;75.50;;;;;;770729;183;26570;-57
2023/10/20 23:01:34;;;;;;;3.83;2.20;;;20.10;75.50;;;;;;774663;183;26586;-57
2023/10/20 23:04:01;;;;;;;2.80;2.30;;;20.10;75.40;;;;;;770803;183;26545;-56
2023/10/20 23:06:28;;;;;;;2.90;2.37;;;20.10;75.40;;;;;;770014;184;27112;-55
2023/10/20 23:08:54;;;;;;;3.47;2.40;;;20.10;75.50;;;;;;776604;184;26593;-51
2023/10/20 23:11:22;;;;;;;3.10;2.20;;;20.20;75.50;;;;;;775048;184;26563;-62
2023/10/20 23:13:49;;;;;;;2.73;2.13;;;20.20;75.40;;;;;;775129;184;26567;-59
2023/10/20 23:16:16;;;;;;;3.03;2.30;;;20.20;75.40;;;;;;775656;184;26521;-59
2023/10/20 23:18:46;;;;;;;2.83;2.30;;;20.10;75.30;;;;;;779786;181;26562;-60
2023/10/20 23:21:10;;;;;;;3.53;2.47;;;20.20;75.50;;;;;;776886;182;27322;-57
2023/10/20 23:23:36;;;;;;;3.10;2.23;;;20.10;75.40;;;;;;768027;183;26577;-54
2023/10/20 23:26:03;;;;;;;3.50;2.07;;;20.10;76.10;;;;;;776631;183;27144;-60
2023/10/20 23:28:31;;;;;;;3.27;2.50;;;20.20;75.60;;;;;;776400;180;26569;-59
2023/10/20 23:30:58;;;;;;;2.50;1.97;;;20.20;75.50;;;;;;773507;183;26596;-56
2023/10/20 23:33:25;;;;;;;2.90;2.17;;;20.20;75.50;;;;;;773548;183;26583;-60
2023/10/20 23:35:52;;;;;;;2.63;2.00;;;20.20;75.40;;;;;;773011;183;27550;-56
2023/10/20 23:38:18;;;;;;;2.50;2.00;;;20.20;75.30;;;;;;760487;187;26590;-54
2023/10/20 23:40:45;;;;;;;3.63;2.33;;;20.20;75.40;;;;;;768167;184;26553;-57
2023/10/20 23:43:11;;;;;;;3.67;2.40;;;20.10;75.30;;;;;;774008;184;26548;-57
2023/10/20 23:45:38;;;;;;;2.40;2.20;;;20.20;75.40;;;;;;777514;183;26566;-57
2023/10/20 23:48:05;;;;;;;3.03;2.20;;;20.20;75.30;;;;;;777304;183;27457;-57
2023/10/20 23:50:31;;;;;;;1.93;1.73;;;20.20;75.40;;;;;;764616;186;27222;-55
2023/10/20 23:52:58;;;;;;;3.87;2.27;;;20.20;75.30;;;;;;756453;187;26585;-59
2023/10/20 23:55:26;;;;;;;2.60;2.00;;;20.10;76.20;;;;;;760498;187;26591;-59
2023/10/20 23:57:53;;;;;;;3.40;2.03;;;20.10;75.40;;;;;;766861;183;26583;-59
